Time,TemperatureF,DewpointF,PressureIn,WindDirection,WindDirectionDegrees,WindSpeedMPH,WindSpeedGustMPH,Humidity,HourlyPrecipIn,Conditions,Clouds,dailyrainin,SoftwareType,DateUTC
2013-11-01 00:01:00,61.1,58.5,29.76,SSE,147,0.0,0.0,91,0.00,,,0.00,Wunderground v.1.15,2013-11-01 04:01:00,
2013-11-01 00:06:00,61.0,58.4,29.76,SSE,147,0.0,0.0,91,0.00,,,0.00,Wunderground v.1.15,2013-11-01 04:06:00,
2013-11-01 00:15:00,60.9,58.3,29.73,SSE,147,0.0,0.0,91,0.00,,,0.00,Wunderground v.1.15,2013-11-01 04:15:00,
2013-11-01 00:21:00,60.7,58.1,29.73,SSE,147,0.0,0.0,91,0.00,,,0.00,Wunderground v.1.15,2013-11-01 04:21:00,
2013-11-01 00:30:00,60.8,58.5,29.72,SSE,147,0.0,0.0,92,0.00,,,0.00,Wunderground v.1.15,2013-11-01 04:30:00,
2013-11-01 00:35:00,60.9,58.6,29.72,SSE,147,0.0,0.0,92,0.00,,,0.00,Wunderground v.1.15,2013-11-01 04:35:00,
2013-11-01 00:41:00,60.9,58.6,29.73,SE,146,0.0,0.0,92,0.00,,,0.00,Wunderground v.1.15,2013-11-01 04:41:00,
2013-11-01 00:50:00,61.0,58.7,29.71,SE,146,0.0,0.0,92,0.00,,,0.00,Wunderground v.1.15,2013-11-01 04:50:00,
2013-11-01 01:01:00,61.3,59.0,29.71,SE,140,0.0,0.0,92,0.00,,,0.00,Wunderground v.1.15,2013-11-01 05:01:00,
2013-11-01 01:11:00,61.6,59.3,29.70,SSW,199,0.0,0.0,92,0.00,,,0.00,Wunderground v.1.15,2013-11-01 05:11:00,
2013-11-01 01:21:00,62.8,60.4,29.70,SSW,204,0.0,0.0,92,0.00,,,0.00,Wunderground v.1.15,2013-11-01 05:21:00,
2013-11-01 01:31:00,63.9,61.2,29.71,West,271,1.0,5.0,91,0.00,,,0.00,Wunderground v.1.15,2013-11-01 05:31:00,
2013-11-01 01:40:00,65.5,61.2,29.69,WNW,303,5.0,7.0,86,0.00,,,0.00,Wunderground v.1.15,2013-11-01 05:40:00,
2013-11-01 01:46:00,66.5,61.2,29.69,NW,315,6.0,7.0,83,0.00,,,0.00,Wunderground v.1.15,2013-11-01 05:46:00,
2013-11-01 01:56:00,67.7,61.3,29.69,WNW,291,7.0,10.0,80,0.00,,,0.00,Wunderground v.1.15,2013-11-01 05:56:00,
2013-11-01 02:01:00,67.9,61.5,29.68,SW,234,6.0,8.0,80,0.00,,,0.00,Wunderground v.1.15,2013-11-01 06:01:00,
2013-11-01 02:10:00,68.0,61.6,29.67,WNW,296,5.0,8.0,80,0.00,,,0.00,Wunderground v.1.15,2013-11-01 06:10:00,
2013-11-01 02:16:00,68.0,61.2,29.66,SW,220,6.0,8.0,79,0.00,,,0.00,Wunderground v.1.15,2013-11-01 06:16:00,
2013-11-01 02:26:00,68.2,61.4,29.68,NW,319,7.0,8.0,79,0.00,,,0.00,Wunderground v.1.15,2013-11-01 06:26:00,
2013-11-01 02:35:00,68.2,61.1,29.66,WNW,295,6.0,8.0,78,0.00,,,0.00,Wunderground v.1.15,2013-11-01 06:35:00,
2013-11-01 02:41:00,68.2,61.1,29.66,West,275,6.0,8.0,78,0.00,,,0.00,Wunderground v.1.15,2013-11-01 06:41:00,
2013-11-01 02:50:00,68.2,61.1,29.66,WNW,294,9.0,9.0,78,0.00,,,0.00,Wunderground v.1.15,2013-11-01 06:50:00,
2013-11-01 03:01:00,68.0,61.2,29.67,NW,318,7.0,9.0,79,0.00,,,0.00,Wunderground v.1.15,2013-11-01 07:01:00,
2013-11-01 03:11:00,67.8,61.4,29.66,WSW,243,7.0,7.0,80,0.00,,,0.00,Wunderground v.1.15,2013-11-01 07:11:00,
2013-11-01 03:20:00,67.6,61.2,29.65,WNW,293,6.0,7.0,80,0.00,,,0.00,Wunderground v.1.15,2013-11-01 07:20:00,
2013-11-01 03:26:00,67.5,61.1,29.65,NW,307,6.0,9.0,80,0.00,,,0.00,Wunderground v.1.15,2013-11-01 07:26:00,
2013-11-01 03:36:00,67.3,61.3,29.65,WNW,292,6.0,6.0,81,0.00,,,0.00,Wunderground v.1.15,2013-11-01 07:36:00,
2013-11-01 03:46:00,67.4,61.0,29.66,WNW,286,6.0,6.0,80,0.00,,,0.00,Wunderground v.1.15,2013-11-01 07:46:00,
2013-11-01 03:51:00,67.3,60.9,29.66,SW,225,5.0,13.0,80,0.00,,,0.00,Wunderground v.1.15,2013-11-01 07:51:00,
2013-11-01 04:00:00,67.2,60.8,29.65,WNW,298,5.0,5.0,80,0.00,,,0.00,Wunderground v.1.15,2013-11-01 08:00:00,
2013-11-01 04:06:00,67.1,60.7,29.65,WNW,294,5.0,5.0,80,0.00,,,0.00,Wunderground v.1.15,2013-11-01 08:06:00,
2013-11-01 04:15:00,67.0,60.6,29.64,NW,317,4.0,6.0,80,0.00,,,0.00,Wunderground v.1.15,2013-11-01 08:15:00,
2013-11-01 04:26:00,66.9,60.2,29.64,WSW,247,6.0,8.0,79,0.00,,,0.00,Wunderground v.1.15,2013-11-01 08:26:00,
2013-11-01 04:31:00,66.8,60.1,29.64,WNW,290,6.0,7.0,79,0.00,,,0.00,Wunderground v.1.15,2013-11-01 08:31:00,
2013-11-01 04:41:00,66.9,59.8,29.64,West,281,6.0,7.0,78,0.00,,,0.00,Wunderground v.1.15,2013-11-01 08:41:00,
2013-11-01 04:51:00,66.8,59.7,29.64,West,267,6.0,6.0,78,0.00,,,0.00,Wunderground v.1.15,2013-11-01 08:51:00,
2013-11-01 05:01:00,66.7,59.6,29.63,West,270,6.0,7.0,78,0.00,,,0.00,Wunderground v.1.15,2013-11-01 09:01:00,
2013-11-01 05:11:00,66.5,59.8,29.64,NW,311,4.0,7.0,79,0.00,,,0.00,Wunderground v.1.15,2013-11-01 09:11:00,
2013-11-01 05:21:00,66.4,59.7,29.63,WNW,289,2.0,2.0,79,0.00,,,0.00,Wunderground v.1.15,2013-11-01 09:21:00,
2013-11-01 05:30:00,66.4,59.7,29.63,South,173,2.0,2.0,79,0.00,,,0.00,Wunderground v.1.15,2013-11-01 09:30:00,
2013-11-01 05:36:00,66.3,59.2,29.63,SW,215,0.0,5.0,78,0.00,,,0.00,Wunderground v.1.15,2013-11-01 09:36:00,
2013-11-01 05:45:00,66.3,59.2,29.63,West,275,2.0,2.0,78,0.00,,,0.00,Wunderground v.1.15,2013-11-01 09:45:00,
2013-11-01 05:56:00,66.2,59.8,29.63,NW,304,2.0,2.0,80,0.00,,,0.00,Wunderground v.1.15,2013-11-01 09:56:00,
2013-11-01 06:06:00,65.9,59.6,29.63,WSW,256,3.0,7.0,80,0.00,,,0.00,Wunderground v.1.15,2013-11-01 10:06:00,
2013-11-01 06:16:00,65.8,59.5,29.63,SSW,200,3.0,6.0,80,0.00,,,0.00,Wunderground v.1.15,2013-11-01 10:16:00,
2013-11-01 06:26:00,65.7,59.7,29.63,WNW,302,4.0,4.0,81,0.00,,,0.00,Wunderground v.1.15,2013-11-01 10:26:00,
2013-11-01 06:35:00,65.6,59.6,29.62,WNW,292,1.0,2.0,81,0.00,,,0.00,Wunderground v.1.15,2013-11-01 10:35:00,
2013-11-01 06:46:00,65.6,59.6,29.62,WNW,298,3.0,6.0,81,0.00,,,0.00,Wunderground v.1.15,2013-11-01 10:46:00,
2013-11-01 06:56:00,65.6,60.0,29.62,WNW,284,4.0,7.0,82,0.00,,,0.00,Wunderground v.1.15,2013-11-01 10:56:00,
2013-11-01 07:05:00,65.6,60.0,29.62,WNW,293,5.0,5.0,82,0.00,,,0.00,Wunderground v.1.15,2013-11-01 11:05:00,
2013-11-01 07:11:00,65.6,60.0,29.62,SSW,205,4.0,9.0,82,0.00,,,0.00,Wunderground v.1.15,2013-11-01 11:11:00,
2013-11-01 07:20:00,65.5,59.9,29.62,WNW,290,4.0,4.0,82,0.00,,,0.00,Wunderground v.1.15,2013-11-01 11:20:00,
2013-11-01 07:31:00,65.5,59.9,29.62,NW,315,4.0,4.0,82,0.00,,,0.00,Wunderground v.1.15,2013-11-01 11:31:00,
2013-11-01 07:40:00,65.4,60.1,29.63,WNW,294,0.0,0.0,83,0.00,,,0.00,Wunderground v.1.15,2013-11-01 11:40:00,
2013-11-01 07:51:00,65.4,60.1,29.63,NW,326,0.0,0.0,83,0.00,,,0.00,Wunderground v.1.15,2013-11-01 11:51:00,
2013-11-01 08:01:00,65.2,60.6,29.64,NNW,336,0.0,0.0,85,0.00,,,0.00,Wunderground v.1.15,2013-11-01 12:01:00,
2013-11-01 08:10:00,64.7,60.7,29.64,NW,313,0.0,0.0,87,0.00,,,0.01,Wunderground v.1.15,2013-11-01 12:10:00,
2013-11-01 08:21:00,63.9,60.6,29.65,NNW,339,0.0,0.0,89,0.00,,,0.01,Wunderground v.1.15,2013-11-01 12:21:00,
2013-11-01 08:31:00,63.3,60.6,29.65,North,350,3.0,4.0,91,0.00,,,0.02,Wunderground v.1.15,2013-11-01 12:31:00,
2013-11-01 08:41:00,62.9,60.5,29.65,NNW,330,2.0,2.0,92,0.00,,,0.02,Wunderground v.1.15,2013-11-01 12:41:00,
2013-11-01 08:51:00,62.8,60.4,29.66,NNW,330,0.0,0.0,92,0.00,,,0.02,Wunderground v.1.15,2013-11-01 12:51:00,
2013-11-01 09:01:00,62.8,60.7,29.66,NNW,330,0.0,0.0,93,0.00,,,0.02,Wunderground v.1.15,2013-11-01 13:01:00,
2013-11-01 09:11:00,62.8,60.7,29.67,North,5,0.0,0.0,93,0.00,,,0.02,Wunderground v.1.15,2013-11-01 13:11:00,
2013-11-01 09:21:00,62.8,60.7,29.68,North,5,0.0,0.0,93,0.00,,,0.02,Wunderground v.1.15,2013-11-01 13:21:00,
2013-11-01 09:30:00,62.8,60.7,29.66,NNE,12,0.0,0.0,93,0.00,,,0.02,Wunderground v.1.15,2013-11-01 13:30:00,
2013-11-01 09:41:00,63.0,61.2,29.67,North,11,0.0,0.0,94,0.00,,,0.02,Wunderground v.1.15,2013-11-01 13:41:00,
2013-11-01 09:51:00,63.1,61.3,29.67,North,11,0.0,0.0,94,0.00,,,0.03,Wunderground v.1.15,2013-11-01 13:51:00,
2013-11-01 10:01:00,63.3,61.5,29.68,North,11,0.0,0.0,94,0.00,,,0.03,Wunderground v.1.15,2013-11-01 14:01:00,
2013-11-01 10:11:00,63.4,61.6,29.68,North,11,0.0,0.0,94,0.00,,,0.03,Wunderground v.1.15,2013-11-01 14:11:00,
2013-11-01 10:21:00,63.4,61.6,29.67,North,11,0.0,0.0,94,0.00,,,0.03,Wunderground v.1.15,2013-11-01 14:21:00,
2013-11-01 10:30:00,63.4,61.6,29.67,North,11,0.0,0.0,94,0.00,,,0.04,Wunderground v.1.15,2013-11-01 14:30:00,
2013-11-01 10:41:00,63.4,61.6,29.67,North,11,0.0,0.0,94,0.00,,,0.04,Wunderground v.1.15,2013-11-01 14:41:00,
2013-11-01 10:56:00,63.3,61.5,29.67,North,11,0.0,0.0,94,0.00,,,0.04,Wunderground v.1.15,2013-11-01 14:56:00,
2013-11-01 11:01:00,63.3,61.5,29.66,North,11,0.0,0.0,94,0.00,,,0.04,Wunderground v.1.15,2013-11-01 15:01:00,
2013-11-01 11:10:00,63.4,61.6,29.66,North,11,0.0,0.0,94,0.00,,,0.04,Wunderground v.1.15,2013-11-01 15:10:00,
2013-11-01 11:21:00,64.0,62.5,29.65,North,11,0.0,0.0,95,0.00,,,0.04,Wunderground v.1.15,2013-11-01 15:21:00,
2013-11-01 11:31:00,64.9,63.4,29.65,North,11,0.0,0.0,95,0.00,,,0.04,Wunderground v.1.15,2013-11-01 15:31:00,
2013-11-01 11:41:00,65.5,63.4,29.64,North,11,0.0,0.0,93,0.00,,,0.04,Wunderground v.1.15,2013-11-01 15:41:00,
2013-11-01 11:46:00,65.8,63.4,29.64,North,11,0.0,0.0,92,0.00,,,0.04,Wunderground v.1.15,2013-11-01 15:46:00,
2013-11-01 11:56:00,66.5,63.5,29.64,North,11,0.0,0.0,90,0.00,,,0.04,Wunderground v.1.15,2013-11-01 15:56:00,
2013-11-01 12:01:00,66.9,63.6,29.65,North,11,0.0,0.0,89,0.00,,,0.04,Wunderground v.1.15,2013-11-01 16:01:00,
2013-11-01 12:11:00,67.4,63.1,29.65,SSW,208,0.0,0.0,86,0.00,,,0.04,Wunderground v.1.15,2013-11-01 16:11:00,
2013-11-01 12:20:00,68.1,62.7,29.64,SSW,192,0.0,0.0,83,0.00,,,0.04,Wunderground v.1.15,2013-11-01 16:20:00,
2013-11-01 12:26:00,68.8,63.4,29.64,SW,215,0.0,0.0,83,0.00,,,0.04,Wunderground v.1.15,2013-11-01 16:26:00,
2013-11-01 12:36:00,70.0,62.8,29.63,SSW,205,0.0,0.0,78,0.00,,,0.04,Wunderground v.1.15,2013-11-01 16:36:00,
2013-11-01 12:45:00,70.6,60.3,29.61,WNW,290,4.0,4.0,70,0.00,,,0.04,Wunderground v.1.15,2013-11-01 16:45:00,
2013-11-01 12:51:00,71.1,60.8,29.61,South,188,2.0,7.0,70,0.00,,,0.04,Wunderground v.1.15,2013-11-01 16:51:00,
2013-11-01 13:01:00,71.6,60.9,29.61,West,266,2.0,2.0,69,0.00,,,0.04,Wunderground v.1.15,2013-11-01 17:01:00,
2013-11-01 13:11:00,72.5,61.3,29.59,SSW,192,0.0,0.0,68,0.00,,,0.04,Wunderground v.1.15,2013-11-01 17:11:00,
2013-11-01 13:20:00,73.0,61.4,29.59,SSW,203,3.0,7.0,67,0.00,,,0.04,Wunderground v.1.15,2013-11-01 17:20:00,
2013-11-01 13:26:00,73.1,61.5,29.59,SW,234,5.0,7.0,67,0.00,,,0.04,Wunderground v.1.15,2013-11-01 17:26:00,
2013-11-01 13:36:00,73.5,61.0,29.59,West,259,4.0,4.0,65,0.00,,,0.04,Wunderground v.1.15,2013-11-01 17:36:00,
2013-11-01 13:46:00,72.8,61.2,29.58,West,267,4.0,7.0,67,0.00,,,0.04,Wunderground v.1.15,2013-11-01 17:46:00,
2013-11-01 13:56:00,73.1,60.6,29.58,SW,218,3.0,5.0,65,0.00,,,0.04,Wunderground v.1.15,2013-11-01 17:56:00,
2013-11-01 14:01:00,73.5,60.6,29.57,NW,313,3.0,6.0,64,0.00,,,0.04,Wunderground v.1.15,2013-11-01 18:01:00,
2013-11-01 14:11:00,73.9,62.2,29.57,SW,236,4.0,4.0,67,0.00,,,0.04,Wunderground v.1.15,2013-11-01 18:11:00,
2013-11-01 14:20:00,73.9,62.2,29.56,SW,216,3.0,8.0,67,0.00,,,0.04,Wunderground v.1.15,2013-11-01 18:20:00,
2013-11-01 14:31:00,73.3,61.7,29.56,SW,234,5.0,5.0,67,0.00,,,0.04,Wunderground v.1.15,2013-11-01 18:31:00,
2013-11-01 14:41:00,73.5,61.9,29.55,SSW,206,4.0,7.0,67,0.00,,,0.04,Wunderground v.1.15,2013-11-01 18:41:00,
2013-11-01 14:51:00,73.6,60.2,29.55,SSW,205,5.0,11.0,63,0.00,,,0.04,Wunderground v.1.15,2013-11-01 18:51:00,
2013-11-01 15:01:00,73.9,60.5,29.55,West,276,6.0,6.0,63,0.00,,,0.04,Wunderground v.1.15,2013-11-01 19:01:00,
2013-11-01 15:11:00,74.5,62.0,29.55,South,188,4.0,10.0,65,0.00,,,0.04,Wunderground v.1.15,2013-11-01 19:11:00,
2013-11-01 15:20:00,73.7,62.5,29.56,WNW,287,6.0,6.0,68,0.00,,,0.04,Wunderground v.1.15,2013-11-01 19:20:00,
2013-11-01 15:26:00,72.6,62.3,29.55,SW,226,7.0,9.0,70,0.00,,,0.04,Wunderground v.1.15,2013-11-01 19:26:00,
2013-11-01 15:36:00,72.0,61.7,29.55,SSW,192,7.0,8.0,70,0.00,,,0.04,Wunderground v.1.15,2013-11-01 19:36:00,
2013-11-01 15:45:00,71.3,61.4,29.54,SW,229,7.0,9.0,71,0.00,,,0.04,Wunderground v.1.15,2013-11-01 19:45:00,
2013-11-01 15:51:00,71.1,61.2,29.54,SSW,194,5.0,7.0,71,0.00,,,0.04,Wunderground v.1.15,2013-11-01 19:51:00,
2013-11-01 16:01:00,70.3,60.8,29.54,SSW,207,2.0,2.0,72,0.00,,,0.04,Wunderground v.1.15,2013-11-01 20:01:00,
2013-11-01 16:10:00,70.9,61.4,29.53,SSW,203,3.0,3.0,72,0.00,,,0.04,Wunderground v.1.15,2013-11-01 20:10:00,
2013-11-01 16:21:00,71.9,61.2,29.53,SW,221,3.0,7.0,69,0.00,,,0.04,Wunderground v.1.15,2013-11-01 20:21:00,
2013-11-01 16:31:00,72.4,61.7,29.52,SSW,211,2.0,5.0,69,0.00,,,0.04,Wunderground v.1.15,2013-11-01 20:31:00,
2013-11-01 16:41:00,71.7,61.4,29.52,SSW,196,7.0,7.0,70,0.00,,,0.04,Wunderground v.1.15,2013-11-01 20:41:00,
2013-11-01 16:51:00,70.9,60.6,29.52,South,182,6.0,6.0,70,0.00,,,0.04,Wunderground v.1.15,2013-11-01 20:51:00,
2013-11-01 17:01:00,70.1,60.3,29.53,SW,215,4.0,5.0,71,0.00,,,0.04,Wunderground v.1.15,2013-11-01 21:01:00,
2013-11-01 17:11:00,70.2,60.4,29.54,SW,227,2.0,4.0,71,0.00,,,0.04,Wunderground v.1.15,2013-11-01 21:11:00,
2013-11-01 17:21:00,70.1,60.3,29.55,SSW,211,3.0,3.0,71,0.00,,,0.04,Wunderground v.1.15,2013-11-01 21:21:00,
2013-11-01 17:30:00,69.3,60.3,29.55,SSW,211,1.0,1.0,73,0.00,,,0.04,Wunderground v.1.15,2013-11-01 21:30:00,
2013-11-01 17:41:00,68.3,59.7,29.55,South,184,4.0,6.0,74,0.00,,,0.04,Wunderground v.1.15,2013-11-01 21:41:00,
2013-11-01 17:50:00,67.7,59.9,29.56,SSW,204,4.0,4.0,76,0.00,,,0.04,Wunderground v.1.15,2013-11-01 21:50:00,
2013-11-01 18:01:00,67.1,59.6,29.56,SSW,204,0.0,0.0,77,0.00,,,0.04,Wunderground v.1.15,2013-11-01 22:01:00,
2013-11-01 18:11:00,66.8,59.7,29.56,WNW,296,0.0,13.0,78,0.00,,,0.04,Wunderground v.1.15,2013-11-01 22:11:00,
2013-11-01 18:20:00,66.6,59.5,29.56,WSW,238,0.0,13.0,78,0.00,,,0.04,Wunderground v.1.15,2013-11-01 22:20:00,
2013-11-01 18:26:00,66.4,59.3,29.56,WSW,237,0.0,13.0,78,0.00,,,0.04,Wunderground v.1.15,2013-11-01 22:26:00,
2013-11-01 18:36:00,66.1,59.4,29.57,WSW,237,0.0,13.0,79,0.00,,,0.04,Wunderground v.1.15,2013-11-01 22:36:00,
2013-11-01 18:46:00,65.5,59.2,29.57,SW,236,0.0,13.0,80,0.00,,,0.04,Wunderground v.1.15,2013-11-01 22:46:00,
2013-11-01 18:56:00,64.9,58.9,29.57,SW,236,0.0,13.0,81,0.00,,,0.04,Wunderground v.1.15,2013-11-01 22:56:00,
2013-11-01 19:05:00,64.1,58.5,29.57,SW,236,0.0,13.0,82,0.00,,,0.04,Wunderground v.1.15,2013-11-01 23:05:00,
2013-11-01 19:11:00,63.6,58.3,29.57,SW,236,0.0,13.0,83,0.00,,,0.04,Wunderground v.1.15,2013-11-01 23:11:00,
2013-11-01 19:21:00,62.9,58.0,29.58,SW,236,0.0,13.0,84,0.00,,,0.04,Wunderground v.1.15,2013-11-01 23:21:00,
2013-11-01 19:30:00,62.3,57.7,29.58,SW,236,0.0,13.0,85,0.00,,,0.04,Wunderground v.1.15,2013-11-01 23:30:00,
2013-11-01 19:36:00,61.9,57.7,29.59,SW,236,0.0,13.0,86,0.00,,,0.04,Wunderground v.1.15,2013-11-01 23:36:00,
2013-11-01 19:45:00,61.3,57.4,29.58,SW,236,0.0,13.0,87,0.00,,,0.04,Wunderground v.1.15,2013-11-01 23:45:00,
2013-11-01 19:56:00,60.7,57.1,29.58,SW,236,0.0,13.0,88,0.00,,,0.04,Wunderground v.1.15,2013-11-01 23:56:00,
2013-11-01 20:05:00,61.0,58.0,29.58,NNE,28,0.0,13.0,90,0.00,,,0.04,Wunderground v.1.15,2013-11-02 00:05:00,
2013-11-01 20:16:00,61.7,58.4,29.58,NNE,30,0.0,13.0,89,0.00,,,0.04,Wunderground v.1.15,2013-11-02 00:16:00,
2013-11-01 20:26:00,61.3,58.0,29.58,NNE,30,0.0,13.0,89,0.00,,,0.04,Wunderground v.1.15,2013-11-02 00:26:00,
2013-11-01 20:36:00,60.9,57.6,29.59,NNE,30,0.0,13.0,89,0.00,,,0.04,Wunderground v.1.15,2013-11-02 00:36:00,
2013-11-01 20:46:00,60.3,57.4,29.59,NNE,30,0.0,13.0,90,0.00,,,0.04,Wunderground v.1.15,2013-11-02 00:46:00,
2013-11-01 20:55:00,59.7,57.4,29.59,NNE,30,0.0,13.0,92,0.00,,,0.04,Wunderground v.1.15,2013-11-02 00:55:00,
2013-11-01 21:01:00,59.4,56.5,29.59,NNE,30,0.0,13.0,90,0.00,,,0.04,Wunderground v.1.15,2013-11-02 01:01:00,
2013-11-01 21:10:00,58.8,55.9,29.60,NNE,30,0.0,13.0,90,0.00,,,0.04,Wunderground v.1.15,2013-11-02 01:10:00,
2013-11-01 21:21:00,58.3,55.7,29.60,NNE,30,0.0,13.0,91,0.00,,,0.04,Wunderground v.1.15,2013-11-02 01:21:00,
2013-11-01 21:31:00,57.7,55.1,29.60,NNE,30,0.0,13.0,91,0.00,,,0.04,Wunderground v.1.15,2013-11-02 01:31:00,
2013-11-01 21:41:00,57.2,54.6,29.60,NNE,30,0.0,13.0,91,0.00,,,0.04,Wunderground v.1.15,2013-11-02 01:41:00,
2013-11-01 21:51:00,56.6,54.0,29.60,NNE,30,0.0,13.0,91,0.00,,,0.04,Wunderground v.1.15,2013-11-02 01:51:00,
2013-11-01 22:00:00,56.4,54.1,29.61,NNE,30,0.0,13.0,92,0.00,,,0.04,Wunderground v.1.15,2013-11-02 02:00:00,
2013-11-01 22:06:00,56.2,53.9,29.61,NNE,30,0.0,13.0,92,0.00,,,0.04,Wunderground v.1.15,2013-11-02 02:06:00,
2013-11-01 22:15:00,55.8,53.5,29.61,NNE,30,0.0,13.0,92,0.00,,,0.04,Wunderground v.1.15,2013-11-02 02:15:00,
2013-11-01 22:26:00,55.5,53.2,29.61,NNE,30,0.0,13.0,92,0.00,,,0.04,Wunderground v.1.15,2013-11-02 02:26:00,
2013-11-01 22:35:00,55.1,53.1,29.62,NNE,30,0.0,13.0,93,0.00,,,0.04,Wunderground v.1.15,2013-11-02 02:35:00,
2013-11-01 22:46:00,54.7,52.7,29.62,NNE,30,0.0,13.0,93,0.00,,,0.04,Wunderground v.1.15,2013-11-02 02:46:00,
2013-11-01 22:56:00,54.4,52.4,29.62,NNE,30,0.0,13.0,93,0.00,,,0.04,Wunderground v.1.15,2013-11-02 02:56:00,
2013-11-01 23:06:00,54.2,52.5,29.62,NNE,30,0.0,13.0,94,0.00,,,0.04,Wunderground v.1.15,2013-11-02 03:06:00,
2013-11-01 23:16:00,54.0,52.3,29.62,NNE,30,0.0,13.0,94,0.00,,,0.04,Wunderground v.1.15,2013-11-02 03:16:00,
2013-11-01 23:25:00,53.5,51.5,29.62,NNE,30,0.0,13.0,93,0.00,,,0.04,Wunderground v.1.15,2013-11-02 03:25:00,
2013-11-01 23:31:00,53.3,51.3,29.62,NNE,30,0.0,13.0,93,0.00,,,0.04,Wunderground v.1.15,2013-11-02 03:31:00,
2013-11-01 23:41:00,52.8,51.1,29.62,NNE,30,0.0,13.0,94,0.00,,,0.04,Wunderground v.1.15,2013-11-02 03:41:00,
2013-11-01 23:51:00,52.6,50.6,29.62,NNE,30,0.0,13.0,93,0.00,,,0.04,Wunderground v.1.15,2013-11-02 03:51:00,